Time;durP1;ratioP1;P1;durP2;ratioP2;P2;SDS_P1;SDS_P2;PMS_P1;PMS_P2;Temp;Humidity;BMP_temperature;BMP_pressure;BME280_temperature;BME280_humidity;BME280_pressure;Samples;Min_cycle;Max_cycle;Signal;HPM_P1;HPM_P2
2021/11/03 00:00:09;;;;;;;;;;;;;;;-1.85;35.45;101477.13;5016928;28;19921;-81
2021/11/03 00:02:35;;;;;;;;;;;;;;;-1.86;34.97;101479.75;5016425;28;19956;-82
2021/11/03 00:05:01;;;;;;;;;;;;;;;-1.88;35.11;101479.75;5032743;28;19967;-82
2021/11/03 00:07:29;;;;;;;;;;;;;;;-1.86;35.31;101475.38;5032769;28;19921;-81
2021/11/03 00:09:58;;;;;;;;;;;;;;;-1.86;35.85;101480.63;5032846;28;19956;-82
2021/11/03 00:12:24;;;;;;;;;;;;;;;-1.90;35.21;101489.34;5016520;28;20269;-82
2021/11/03 00:14:49;;;;;;;;;;;;;;;-1.89;36.06;101495.44;5033703;28;19971;-81
2021/11/03 00:17:15;;;;;;;;;;;;;;;-1.88;36.37;101499.81;5015911;28;19921;-79
2021/11/03 00:19:41;;;;;;;;;;;;;;;-1.88;35.79;101492.84;5032625;28;19921;-78
2021/11/03 00:22:07;;;;;;;;;;;;;;;-1.88;36.12;101495.47;5015974;28;19963;-80
2021/11/03 00:24:34;;;;;;;;;;;;;;;-1.84;36.01;101501.59;5016078;28;19920;-80
2021/11/03 00:27:00;;;;;;;;;;;;;;;-1.85;35.91;101503.34;5032681;28;20015;-81
2021/11/03 00:29:26;;;;;;;;;;;;;;;-1.90;35.65;101505.06;5032487;28;19925;-81
2021/11/03 00:31:52;;;;;;;;;;;;;;;-1.93;36.15;101514.66;5032410;28;19933;-79
2021/11/03 00:34:19;;;;;;;;;;;;;;;-1.91;36.18;101519.03;4999705;28;19921;-79
2021/11/03 00:36:45;;;;;;;;;;;;;;;-1.90;36.50;101512.94;5015840;28;20051;-81
2021/11/03 00:39:10;;;;;;;;;;;;;;;-1.89;35.81;101522.53;5016392;28;19947;-81
2021/11/03 00:41:36;;;;;;;;;;;;;;;-1.90;35.75;101519.91;5015406;28;19921;-81
2021/11/03 00:44:02;;;;;;;;;;;;;;;-1.92;35.95;101522.50;5015709;28;19932;-83
2021/11/03 00:46:29;;;;;;;;;;;;;;;-1.99;35.58;101528.63;5032447;28;19975;-81
2021/11/03 00:48:55;;;;;;;;;;;;;;;-1.99;35.73;101528.63;5015930;28;19921;-81
2021/11/03 00:51:20;;;;;;;;;;;;;;;-1.98;35.86;101525.13;5032296;28;19921;-82
2021/11/03 00:53:46;;;;;;;;;;;;;;;-2.03;35.28;101525.09;5031827;28;19927;-82
2021/11/03 00:56:12;;;;;;;;;;;;;;;-2.02;35.54;101523.34;5015799;28;19979;-81
2021/11/03 00:58:38;;;;;;;;;;;;;;;-1.96;35.98;101525.97;5016450;28;20394;-81
2021/11/03 01:01:04;;;;;;;;;;;;;;;-1.97;35.36;101529.47;5015850;28;19943;-77
2021/11/03 01:03:30;;;;;;;;;;;;;;;-2.00;35.28;101530.34;5032180;28;19921;-81
2021/11/03 01:05:56;;;;;;;;;;;;;;;-1.99;35.73;101526.00;5021012;28;19992;-79
2021/11/03 01:08:22;;;;;;;;;;;;;;;-1.97;35.58;101534.72;5029833;28;19921;-80
2021/11/03 01:10:48;;;;;;;;;;;;;;;-1.99;35.57;101529.50;5051730;28;19908;-79
2021/11/03 01:13:15;;;;;;;;;;;;;;;-1.99;35.69;101542.59;5051265;28;19928;-79
2021/11/03 01:15:41;;;;;;;;;;;;;;;-1.96;35.51;101539.09;5047640;28;19920;-79
2021/11/03 01:18:07;;;;;;;;;;;;;;;-1.99;35.29;101541.72;5025837;28;19964;-78
2021/11/03 01:20:33;;;;;;;;;;;;;;;-1.97;35.49;101539.97;5038371;28;19925;-80
2021/11/03 01:22:59;;;;;;;;;;;;;;;-1.98;35.70;101538.22;5022351;28;19944;-78
2021/11/03 01:25:25;;;;;;;;;;;;;;;-2.00;35.87;101545.19;5003387;28;20326;-78
2021/11/03 01:27:51;;;;;;;;;;;;;;;-2.04;36.07;101544.28;5018730;28;20303;-80
2021/11/03 01:30:18;;;;;;;;;;;;;;;-2.04;36.31;101543.41;5003229;28;19971;-78
2021/11/03 01:32:44;;;;;;;;;;;;;;;-2.07;35.59;101552.16;5019861;28;19933;-79
2021/11/03 01:35:10;;;;;;;;;;;;;;;-2.10;35.99;101546.00;5019170;28;19921;-79
2021/11/03 01:37:36;;;;;;;;;;;;;;;-2.09;35.80;101559.09;5035725;28;19921;-79
2021/11/03 01:40:03;;;;;;;;;;;;;;;-2.12;35.47;101561.69;5002935;28;19978;-79
2021/11/03 01:42:29;;;;;;;;;;;;;;;-2.13;35.72;101567.81;5018781;28;19925;-80
2021/11/03 01:44:55;;;;;;;;;;;;;;;-2.12;36.18;101573.94;5035885;28;19967;-80
2021/11/03 01:47:40;;;;;;;;;;;;;;;-2.14;35.83;101580.88;5019315;28;19925;-78
2021/11/03 01:50:11;;;;;;;;;;;;;;;-2.15;36.08;101587.88;5019773;28;19921;-81
2021/11/03 01:52:38;;;;;;;;;;;;;;;-2.16;35.89;101583.50;5020238;28;19928;-78
2021/11/03 01:55:04;;;;;;;;;;;;;;;-2.18;36.02;101587.88;5022491;28;20285;-81
2021/11/03 01:57:31;;;;;;;;;;;;;;;-2.21;35.24;101588.72;5023349;28;19980;-79
2021/11/03 01:59:58;;;;;;;;;;;;;;;-2.20;35.47;101589.59;5037184;28;19921;-80
2021/11/03 02:02:25;;;;;;;;;;;;;;;-2.23;35.48;101595.69;5019461;28;20376;-79
2021/11/03 02:04:52;;;;;;;;;;;;;;;-2.25;35.59;101602.66;5018746;28;19924;-79
2021/11/03 02:07:22;;;;;;;;;;;;;;;-2.29;35.30;101600.00;5018990;28;19920;-79
2021/11/03 02:09:51;;;;;;;;;;;;;;;-2.33;35.64;101599.09;5019115;28;19921;-80
2021/11/03 02:12:18;;;;;;;;;;;;;;;-2.35;34.88;101590.34;5036305;28;19944;-78
2021/11/03 02:14:45;;;;;;;;;;;;;;;-2.38;35.38;101592.94;5021891;28;19971;-79
2021/11/03 02:17:11;;;;;;;;;;;;;;;-2.43;35.51;101596.38;5022231;28;19927;-79
2021/11/03 02:19:37;;;;;;;;;;;;;;;-2.44;35.43;101605.97;5038093;28;19967;-80
2021/11/03 02:22:19;;;;;;;;;;;;;;;-2.60;34.97;101590.97;5018444;28;19964;-78
2021/11/03 02:24:46;;;;;;;;;;;;;;;-2.69;35.21;101597.00;5018518;28;20283;-79
2021/11/03 02:27:12;;;;;;;;;;;;;;;-2.72;35.31;101595.22;5035202;28;19921;-80
2021/11/03 02:29:37;;;;;;;;;;;;;;;-2.72;35.41;101595.22;5018197;28;20354;-79
2021/11/03 02:32:15;;;;;;;;;;;;;;;-2.71;35.34;101596.09;5018276;28;20420;-80
2021/11/03 02:34:40;;;;;;;;;;;;;;;-2.71;34.89;101602.22;5018060;28;19970;-81
2021/11/03 02:37:25;;;;;;;;;;;;;;;-2.70;34.88;101603.09;5017982;28;19921;-79
2021/11/03 02:39:53;;;;;;;;;;;;;;;-2.72;35.25;101600.44;5018492;28;20449;-81
2021/11/03 02:42:19;;;;;;;;;;;;;;;-2.83;35.32;101604.69;5018258;28;19967;-81
2021/11/03 02:44:46;;;;;;;;;;;;;;;-2.91;35.04;101619.44;5017934;28;19921;-80
2021/11/03 02:47:13;;;;;;;;;;;;;;;-2.90;35.47;101631.66;5034665;28;19978;-80
2021/11/03 02:49:39;;;;;;;;;;;;;;;-2.89;35.18;101633.44;5017780;28;20015;-79
2021/11/03 02:52:12;;;;;;;;;;;;;;;-2.92;35.28;101638.63;5034275;28;20446;-78
2021/11/03 02:54:38;;;;;;;;;;;;;;;-2.97;35.44;101635.06;5034769;28;20023;-80
2021/11/03 02:57:04;;;;;;;;;;;;;;;-3.06;35.55;101629.72;5017410;28;20465;-82
2021/11/03 02:59:30;;;;;;;;;;;;;;;-2.97;35.77;101629.81;5013408;28;19968;-79
2021/11/03 03:01:56;;;;;;;;;;;;;;;-2.97;35.40;101629.81;4964421;28;19921;-82
2021/11/03 03:04:25;;;;;;;;;;;;;;;-2.93;35.08;101626.41;4964780;28;19933;-81
2021/11/03 03:06:52;;;;;;;;;;;;;;;-2.88;35.48;101632.56;4964748;28;19926;-80
2021/11/03 03:09:19;;;;;;;;;;;;;;;-2.90;35.03;101636.88;4964932;28;19972;-80
2021/11/03 03:11:47;;;;;;;;;;;;;;;-2.86;34.76;101636.06;4964294;28;19929;-77
2021/11/03 03:14:14;;;;;;;;;;;;;;;-2.80;34.85;101638.75;4994772;28;19921;-79
2021/11/03 03:16:41;;;;;;;;;;;;;;;-2.80;34.82;101649.22;4964641;28;19960;-79
2021/11/03 03:19:06;;;;;;;;;;;;;;;-2.76;34.99;101651.03;4964263;28;19921;-77
2021/11/03 03:21:32;;;;;;;;;;;;;;;-2.75;34.77;101641.41;4963943;28;19925;-79
2021/11/03 03:24:00;;;;;;;;;;;;;;;-2.74;34.44;101646.69;4964729;28;19921;-79
2021/11/03 03:26:26;;;;;;;;;;;;;;;-2.87;34.24;101652.63;4980350;28;19928;-77
2021/11/03 03:28:52;;;;;;;;;;;;;;;-2.83;34.61;101649.19;4964032;28;20404;-79
2021/11/03 03:31:18;;;;;;;;;;;;;;;-2.84;34.66;101657.91;4994578;28;19921;-79
2021/11/03 03:33:46;;;;;;;;;;;;;;;-2.76;34.35;101658.88;5000620;28;20403;-77
2021/11/03 03:36:12;;;;;;;;;;;;;;;-2.69;33.76;101658.09;5016562;28;19960;-80
2021/11/03 03:38:38;;;;;;;;;;;;;;;-2.64;34.06;101667.72;5017465;28;19928;-79
2021/11/03 03:41:04;;;;;;;;;;;;;;;-2.60;34.07;101670.38;5017466;28;20392;-83
2021/11/03 03:43:31;;;;;;;;;;;;;;;-2.53;33.41;101668.72;5017120;28;19921;-81
2021/11/03 03:45:56;;;;;;;;;;;;;;;-2.49;34.14;101675.75;5017159;28;19979;-80
2021/11/03 03:48:22;;;;;;;;;;;;;;;-2.43;33.50;101672.34;5033016;28;20323;-79
2021/11/03 03:50:48;;;;;;;;;;;;;;;-2.42;32.97;101668.84;5034233;28;19943;-81
2021/11/03 03:53:14;;;;;;;;;;;;;;;-2.34;33.03;101675.03;5016821;28;19921;-80
2021/11/03 03:55:40;;;;;;;;;;;;;;;-2.30;33.61;101688.16;5032939;28;19928;-78
2021/11/03 03:58:07;;;;;;;;;;;;;;;-2.26;33.18;101682.13;5016413;28;20098;-78
2021/11/03 04:00:33;;;;;;;;;;;;;;;-2.23;33.68;101690.00;5032603;28;19925;-80
2021/11/03 04:02:59;;;;;;;;;;;;;;;-2.31;33.16;101693.41;5016238;28;19920;-77
2021/11/03 04:05:25;;;;;;;;;;;;;;;-2.28;33.45;101689.06;5033003;28;20444;-79
2021/11/03 04:07:53;;;;;;;;;;;;;;;-2.24;33.44;101692.59;5000159;28;20406;-78
2021/11/03 04:10:19;;;;;;;;;;;;;;;-2.24;33.53;101683.00;5032564;28;19921;-78
2021/11/03 04:12:46;;;;;;;;;;;;;;;-2.17;33.01;101688.31;5016559;28;19921;-76
2021/11/03 04:15:12;;;;;;;;;;;;;;;-2.05;33.73;101696.28;5033152;28;19964;-78
2021/11/03 04:17:38;;;;;;;;;;;;;;;-1.99;33.22;101697.22;5032181;28;19920;-79
2021/11/03 04:20:05;;;;;;;;;;;;;;;-1.99;32.90;101693.72;5032779;28;19921;-78
2021/11/03 04:22:31;;;;;;;;;;;;;;;-1.97;32.93;101689.38;5016095;28;20364;-81
2021/11/03 04:24:58;;;;;;;;;;;;;;;-2.02;32.56;101691.06;5015903;28;19921;-77
2021/11/03 04:27:24;;;;;;;;;;;;;;;-2.05;32.75;101693.66;5032576;28;19960;-76
2021/11/03 04:29:50;;;;;;;;;;;;;;;-1.89;33.12;101706.03;5032304;28;19927;-81
2021/11/03 04:32:16;;;;;;;;;;;;;;;-1.78;32.96;101709.63;5015743;28;19921;-79
2021/11/03 04:34:43;;;;;;;;;;;;;;;-1.75;32.77;101714.91;5016190;28;19980;-78
2021/11/03 04:37:10;;;;;;;;;;;;;;;-1.75;32.66;101699.16;5015688;28;20367;-80
2021/11/03 04:39:38;;;;;;;;;;;;;;;-1.72;32.31;101709.69;5032114;28;20416;-80
2021/11/03 04:42:04;;;;;;;;;;;;;;;-1.58;32.31;101699.31;5031491;28;19956;-80
2021/11/03 04:44:30;;;;;;;;;;;;;;;-1.52;31.59;101711.56;5015624;28;19928;-81
2021/11/03 04:46:56;;;;;;;;;;;;;;;-1.48;31.52;101706.34;5016520;28;19925;-80
2021/11/03 04:49:27;;;;;;;;;;;;;;;-1.43;31.57;101706.38;5032561;28;19971;-78
2021/11/03 04:51:54;;;;;;;;;;;;;;;-1.36;30.67;101710.81;4999186;28;19925;-79
2021/11/03 04:54:21;;;;;;;;;;;;;;;-1.51;30.05;101714.19;5015706;28;19921;-78
2021/11/03 04:56:47;;;;;;;;;;;;;;;-1.53;30.37;101721.19;5015462;28;20002;-79
2021/11/03 04:59:13;;;;;;;;;;;;;;;-1.46;30.65;101730.00;5015444;28;19925;-80
2021/11/03 05:01:39;;;;;;;;;;;;;;;-1.45;30.82;101739.59;5032254;28;19921;-80
2021/11/03 05:04:06;;;;;;;;;;;;;;;-1.44;30.02;101730.00;5002118;28;20388;-80
2021/11/03 05:06:35;;;;;;;;;;;;;;;-1.42;29.77;101734.41;5036353;28;19956;-81
2021/11/03 05:09:04;;;;;;;;;;;;;;;-1.46;29.58;101745.72;5020311;28;20012;-82
2021/11/03 05:11:31;;;;;;;;;;;;;;;-1.39;30.03;101741.38;5019328;28;20408;-80
2021/11/03 05:13:57;;;;;;;;;;;;;;;-1.44;30.06;101740.47;5035964;28;19960;-81
2021/11/03 05:16:26;;;;;;;;;;;;;;;-1.34;30.49;101747.56;5019123;28;20303;-81
2021/11/03 05:18:54;;;;;;;;;;;;;;;-1.37;30.24;101743.16;5019576;28;19924;-80
2021/11/03 05:21:20;;;;;;;;;;;;;;;-1.29;29.46;101751.09;5035769;28;19928;-80
2021/11/03 05:23:46;;;;;;;;;;;;;;;-1.23;29.70;101748.53;5019107;28;20376;-79
2021/11/03 05:26:16;;;;;;;;;;;;;;;-1.20;29.73;101758.13;5018977;28;19975;-79
2021/11/03 05:28:44;;;;;;;;;;;;;;;-1.20;29.56;101750.25;5035651;28;20299;-82
2021/11/03 05:31:10;;;;;;;;;;;;;;;-1.15;29.61;101751.19;5019125;28;19920;-78
2021/11/03 05:33:36;;;;;;;;;;;;;;;-1.16;29.23;101760.81;5035916;28;19974;-78
2021/11/03 05:36:02;;;;;;;;;;;;;;;-1.08;29.34;101760.88;5019178;28;20304;-81
2021/11/03 05:38:28;;;;;;;;;;;;;;;-1.05;29.01;101766.13;5018721;28;20007;-80
2021/11/03 05:40:54;;;;;;;;;;;;;;;-1.11;28.61;101768.72;5019232;28;19921;-79
2021/11/03 05:43:19;;;;;;;;;;;;;;;-1.09;28.84;101774.84;5019717;28;19927;-81
2021/11/03 05:45:45;;;;;;;;;;;;;;;-1.09;29.36;101769.59;5035662;28;19920;-79
2021/11/03 05:48:11;;;;;;;;;;;;;;;-1.05;28.89;101761.78;5036638;28;20291;-80
2021/11/03 05:50:37;;;;;;;;;;;;;;;-1.05;29.26;101779.28;5020648;28;19921;-82
2021/11/03 05:53:04;;;;;;;;;;;;;;;-0.96;29.69;101781.06;5020557;28;19964;-81
2021/11/03 05:55:31;;;;;;;;;;;;;;;-0.96;28.70;101774.06;5020961;28;20388;-82
2021/11/03 05:57:57;;;;;;;;;;;;;;;-0.98;29.04;101775.78;5004657;28;19921;-80
2021/11/03 06:00:24;;;;;;;;;;;;;;;-0.97;29.35;101774.94;5036280;28;19979;-80
2021/11/03 06:02:50;;;;;;;;;;;;;;;-0.87;29.05;101781.97;5020889;28;20380;-78
2021/11/03 06:05:16;;;;;;;;;;;;;;;-0.87;29.56;101787.22;5019721;28;19927;-80
2021/11/03 06:07:47;;;;;;;;;;;;;;;-0.81;29.32;101783.78;5036881;28;19928;-80
2021/11/03 06:10:16;;;;;;;;;;;;;;;-0.73;28.99;101785.56;5036914;28;19977;-78
2021/11/03 06:12:43;;;;;;;;;;;;;;;-0.60;29.68;101775.13;5022455;28;19928;-79
2021/11/03 06:15:09;;;;;;;;;;;;;;;-0.77;28.77;101778.53;5023171;28;19921;-80
2021/11/03 06:17:35;;;;;;;;;;;;;;;-0.89;28.95;101788.97;5021683;28;19984;-79
2021/11/03 06:20:01;;;;;;;;;;;;;;;-0.73;29.50;101789.94;5024337;28;20264;-80
2021/11/03 06:22:29;;;;;;;;;;;;;;;-0.55;29.50;101797.06;5025125;28;19920;-81
2021/11/03 06:24:57;;;;;;;;;;;;;;;-0.55;29.70;101790.03;5027046;28;19921;-79
2021/11/03 06:27:23;;;;;;;;;;;;;;;-0.58;29.77;101789.16;5019962;28;20415;-80
2021/11/03 06:29:49;;;;;;;;;;;;;;;-0.29;29.68;101787.53;5019159;28;19921;-80
2021/11/03 06:32:15;;;;;;;;;;;;;;;-0.15;29.25;101795.47;5004882;28;19929;-80
2021/11/03 06:34:41;;;;;;;;;;;;;;;0.07;29.21;101791.13;5034684;28;19920;-79
2021/11/03 06:37:06;;;;;;;;;;;;;;;0.16;28.45;101798.16;5017570;28;19944;-81
2021/11/03 06:39:32;;;;;;;;;;;;;;;0.21;28.27;101794.66;5001674;28;20354;-80
2021/11/03 06:41:58;;;;;;;;;;;;;;;0.24;28.30;101784.16;5001241;28;20007;-80
2021/11/03 06:44:25;;;;;;;;;;;;;;;0.23;27.75;101785.03;5034424;28;19921;-78
2021/11/03 06:46:51;;;;;;;;;;;;;;;0.34;28.20;101794.66;5034329;28;20299;-80
2021/11/03 06:49:17;;;;;;;;;;;;;;;0.39;28.30;101795.56;5034097;28;20464;-78
2021/11/03 06:51:42;;;;;;;;;;;;;;;0.42;28.61;101798.22;5033668;28;19976;-78
2021/11/03 06:54:08;;;;;;;;;;;;;;;0.57;28.16;101787.69;5034399;28;19978;-81
2021/11/03 06:56:34;;;;;;;;;;;;;;;0.80;28.16;101794.72;5001203;28;19928;-80
2021/11/03 06:59:00;;;;;;;;;;;;;;;0.87;28.12;101792.06;5033714;28;19920;-82
2021/11/03 07:01:26;;;;;;;;;;;;;;;0.83;27.23;101794.69;5017709;28;19925;-84
2021/11/03 07:03:52;;;;;;;;;;;;;;;0.90;27.17;101806.97;5036065;28;20347;-78
2021/11/03 07:06:19;;;;;;;;;;;;;;;1.00;27.50;101798.19;5004311;28;19920;-82
2021/11/03 07:08:47;;;;;;;;;;;;;;;1.09;27.24;101799.91;5017228;28;19928;-79
2021/11/03 07:11:12;;;;;;;;;;;;;;;1.02;26.82;101798.19;5034030;28;19924;-82
2021/11/03 07:13:39;;;;;;;;;;;;;;;1.38;29.43;101807.75;5033689;28;20291;-80
2021/11/03 07:16:04;;;;;;;;;;;;;;;1.51;27.09;101793.69;5017098;28;19921;-81
2021/11/03 07:18:30;;;;;;;;;;;;;;;1.52;26.53;101797.19;5016878;28;19928;-82
2021/11/03 07:20:57;;;;;;;;;;;;;;;1.37;26.13;101803.38;5019536;28;20031;-81
2021/11/03 07:23:22;;;;;;;;;;;;;;;1.36;26.37;101799.00;5037414;28;20058;-78
2021/11/03 07:25:48;;;;;;;;;;;;;;;1.36;26.57;101802.50;5020034;28;19990;-82
2021/11/03 07:28:15;;;;;;;;;;;;;;;1.45;26.89;101801.59;5035593;28;19924;-80
2021/11/03 07:30:40;;;;;;;;;;;;;;;1.50;26.30;101805.09;5053369;28;19928;-78
2021/11/03 07:33:07;;;;;;;;;;;;;;;1.62;26.59;101810.34;5052195;28;20295;-78
2021/11/03 07:35:33;;;;;;;;;;;;;;;1.46;26.02;101805.97;5035804;28;19921;-78
2021/11/03 07:37:59;;;;;;;;;;;;;;;1.63;26.29;101806.81;5036238;28;20437;-78
2021/11/03 07:40:30;;;;;;;;;;;;;;;1.82;26.50;101797.06;5035943;28;19920;-81
2021/11/03 07:42:58;;;;;;;;;;;;;;;2.02;26.88;101793.44;5035664;28;19920;-82
2021/11/03 07:45:25;;;;;;;;;;;;;;;2.28;26.67;101790.63;5036128;28;19920;-78
2021/11/03 07:47:51;;;;;;;;;;;;;;;2.43;26.04;101796.69;5052791;28;19932;-81
2021/11/03 07:50:19;;;;;;;;;;;;;;;2.37;25.97;101788.81;5052538;28;19924;-80
2021/11/03 07:52:47;;;;;;;;;;;;;;;2.47;26.27;101786.09;5036136;28;19920;-80
2021/11/03 07:55:13;;;;;;;;;;;;;;;2.29;25.52;101792.38;5035281;28;20050;-80
2021/11/03 07:57:39;;;;;;;;;;;;;;;2.32;25.40;101787.09;5035561;28;19934;-76
2021/11/03 08:00:06;;;;;;;;;;;;;;;2.48;25.70;101793.13;5031333;28;19920;-78
2021/11/03 08:02:37;;;;;;;;;;;;;;;2.59;25.72;101797.44;5035547;28;19921;-82
2021/11/03 08:05:04;;;;;;;;;;;;;;;2.76;25.40;101804.34;5018611;28;19920;-81
2021/11/03 08:07:30;;;;;;;;;;;;;;;2.87;25.57;101813.06;5019242;28;19932;-80
2021/11/03 08:09:57;;;;;;;;;;;;;;;2.88;24.89;101805.13;5019121;28;20307;-79
2021/11/03 08:12:23;;;;;;;;;;;;;;;2.97;25.05;101804.19;5035634;28;19924;-80
2021/11/03 08:14:49;;;;;;;;;;;;;;;3.00;24.77;101804.13;5051701;28;19921;-80
2021/11/03 08:17:16;;;;;;;;;;;;;;;3.07;23.90;101808.47;5018265;28;20299;-81
2021/11/03 08:19:43;;;;;;;;;;;;;;;3.09;23.67;101800.53;5019140;28;19928;-80
2021/11/03 08:22:09;;;;;;;;;;;;;;;3.16;23.89;101804.88;5018620;28;19926;-80
2021/11/03 08:24:37;;;;;;;;;;;;;;;3.26;24.25;101801.22;5019018;28;20029;-80
2021/11/03 08:27:03;;;;;;;;;;;;;;;3.38;24.18;101794.91;5034923;28;19924;-81
2021/11/03 08:29:29;;;;;;;;;;;;;;;3.49;24.36;101786.88;5018395;28;19920;-77
2021/11/03 08:31:56;;;;;;;;;;;;;;;3.70;24.21;101791.91;5034625;28;19921;-79
2021/11/03 08:34:23;;;;;;;;;;;;;;;3.95;24.61;101786.28;5035219;28;20019;-80
2021/11/03 08:36:49;;;;;;;;;;;;;;;4.03;23.22;101790.59;5018490;28;19920;-81
2021/11/03 08:39:15;;;;;;;;;;;;;;;3.94;23.30;101801.28;5034865;28;19920;-79
2021/11/03 08:41:41;;;;;;;;;;;;;;;3.98;23.33;101786.25;5034843;28;20415;-78
2021/11/03 08:44:07;;;;;;;;;;;;;;;3.84;23.41;101794.38;5018116;28;19921;-81
2021/11/03 08:46:32;;;;;;;;;;;;;;;4.04;23.72;101792.34;5039708;28;20471;-79
2021/11/03 08:49:00;;;;;;;;;;;;;;;4.13;23.04;101792.19;5018434;28;20298;-78
2021/11/03 08:51:26;;;;;;;;;;;;;;;4.23;23.64;101794.72;5018612;28;19974;-80
2021/11/03 08:53:53;;;;;;;;;;;;;;;4.28;23.01;101795.53;5034740;28;20457;-79
2021/11/03 08:56:19;;;;;;;;;;;;;;;4.23;22.77;101792.94;5018426;28;19924;-78
2021/11/03 08:58:45;;;;;;;;;;;;;;;4.35;23.03;101787.47;5034649;28;20007;-76
2021/11/03 09:01:11;;;;;;;;;;;;;;;4.51;22.71;101792.50;5050695;28;19920;-78
2021/11/03 09:03:39;;;;;;;;;;;;;;;4.52;22.01;101792.50;5018918;28;20387;-77
2021/11/03 09:06:05;;;;;;;;;;;;;;;4.60;22.98;101798.56;5018589;28;20097;-78
2021/11/03 09:08:36;;;;;;;;;;;;;;;4.72;22.71;101801.91;5018436;28;19960;-78
2021/11/03 09:11:02;;;;;;;;;;;;;;;5.03;22.74;101792.50;5034678;28;19921;-78
2021/11/03 09:13:28;;;;;;;;;;;;;;;5.06;22.97;101796.91;5034877;28;19943;-78
2021/11/03 09:15:55;;;;;;;;;;;;;;;5.23;22.10;101793.94;5018578;28;20019;-78
2021/11/03 09:18:20;;;;;;;;;;;;;;;5.23;22.20;101799.25;5035088;28;20388;-78
2021/11/03 09:20:47;;;;;;;;;;;;;;;5.20;21.91;101792.22;5019781;28;19928;-78
2021/11/03 09:23:13;;;;;;;;;;;;;;;5.19;22.20;101797.53;5018170;28;19925;-79
2021/11/03 09:25:39;;;;;;;;;;;;;;;5.26;21.49;101800.03;5035043;28;19927;-77
2021/11/03 09:28:05;;;;;;;;;;;;;;;5.27;22.14;101790.34;5034778;28;19921;-77
2021/11/03 09:30:31;;;;;;;;;;;;;;;5.49;21.82;101791.66;5018060;28;19966;-81
2021/11/03 09:32:58;;;;;;;;;;;;;;;5.58;22.04;101783.50;5017696;28;19956;-78
2021/11/03 09:35:26;;;;;;;;;;;;;;;5.73;21.93;101787.63;5018394;28;19927;-78
2021/11/03 09:37:52;;;;;;;;;;;;;;;5.91;21.36;101789.03;5034278;28;19925;-78
2021/11/03 09:40:21;;;;;;;;;;;;;;;5.90;20.73;101797.00;5017550;28;19920;-79
2021/11/03 09:42:47;;;;;;;;;;;;;;;5.90;20.87;101787.25;5017309;28;19928;-78
2021/11/03 09:45:20;;;;;;;;;;;;;;;5.92;20.61;101790.78;5017503;28;19932;-78
2021/11/03 09:48:02;;;;;;;;;;;;;;;5.83;21.14;101794.50;5033922;28;20023;-79
2021/11/03 09:50:28;;;;;;;;;;;;;;;5.68;21.13;101786.84;5019367;28;19927;-79
2021/11/03 09:52:55;;;;;;;;;;;;;;;5.82;21.75;101794.50;5037445;28;19981;-80
2021/11/03 09:55:26;;;;;;;;;;;;;;;6.08;21.58;101792.19;5021299;28;20397;-81
2021/11/03 09:57:56;;;;;;;;;;;;;;;6.27;21.29;101791.78;5055013;28;20015;-79
2021/11/03 10:00:27;;;;;;;;;;;;;;;6.37;20.90;101798.63;5054261;28;19932;-81
2021/11/03 10:03:12;;;;;;;;;;;;;;;6.08;20.48;101797.50;5021490;28;19924;-80
2021/11/03 10:05:44;;;;;;;;;;;;;;;6.05;21.03;101797.56;5021250;28;19920;-80
2021/11/03 10:08:14;;;;;;;;;;;;;;;6.02;20.71;101796.78;5054362;28;20291;-82
2021/11/03 10:10:42;;;;;;;;;;;;;;;6.15;20.49;101794.72;5038288;28;19921;-82
2021/11/03 10:13:19;;;;;;;;;;;;;;;6.25;20.96;101788.31;5037819;28;19920;-84
2021/11/03 10:15:56;;;;;;;;;;;;;;;6.36;20.75;101790.69;5021403;28;19927;-85
2021/11/03 10:18:23;;;;;;;;;;;;;;;6.53;20.14;101789.38;5026033;28;19928;-80
2021/11/03 10:21:20;;;;;;;;;;;;;;;6.60;20.58;101784.78;5040362;28;19921;-81
2021/11/03 10:23:50;;;;;;;;;;;;;;;6.81;20.35;101796.69;5040854;28;19921;-80
2021/11/03 10:26:16;;;;;;;;;;;;;;;6.92;19.74;101793.72;5024604;28;19928;-82
2021/11/03 10:28:44;;;;;;;;;;;;;;;6.95;20.03;101789.22;5020743;28;20028;-79
2021/11/03 10:31:19;;;;;;;;;;;;;;;7.10;19.61;101784.41;5036579;28;19939;-80
2021/11/03 10:33:45;;;;;;;;;;;;;;;7.29;19.89;101796.28;5055191;28;20013;-81
2021/11/03 10:36:21;;;;;;;;;;;;;;;7.46;20.18;101796.72;5020540;28;19928;-80
2021/11/03 10:38:57;;;;;;;;;;;;;;;7.62;19.28;101789.16;5020538;28;20326;-79
2021/11/03 10:41:28;;;;;;;;;;;;;;;7.59;19.42;101785.72;5035924;28;20426;-80
2021/11/03 10:44:14;;;;;;;;;;;;;;;7.47;19.59;101785.16;5036158;28;19920;-78
2021/11/03 10:46:53;;;;;;;;;;;;;;;7.59;19.23;101788.38;5035475;28;19924;-79
2021/11/03 10:49:23;;;;;;;;;;;;;;;7.59;19.43;101785.72;5004288;28;20450;-78
2021/11/03 10:51:56;;;;;;;;;;;;;;;7.83;29.96;101792.13;5019879;28;20396;-77
2021/11/03 10:54:22;;;;;;;;;;;;;;;8.31;23.77;101794.19;5037144;28;19947;-76
2021/11/03 10:56:55;;;;;;;;;;;;;;;7.95;21.32;101797.97;5038597;28;19928;-78
2021/11/03 10:59:27;;;;;;;;;;;;;;;8.03;20.46;101790.59;5004242;28;20006;-81
2021/11/03 11:01:54;;;;;;;;;;;;;;;8.34;19.08;101784.31;5015229;28;19924;-79
2021/11/03 11:04:29;;;;;;;;;;;;;;;8.46;19.60;101794.63;5020111;28;19927;-79
2021/11/03 11:07:14;;;;;;;;;;;;;;;8.19;19.05;101792.78;5010297;28;19921;-80
2021/11/03 11:09:45;;;;;;;;;;;;;;;8.09;18.92;101788.69;5028671;28;20428;-79
2021/11/03 11:12:21;;;;;;;;;;;;;;;8.17;19.09;101786.66;4997876;28;20403;-77
2021/11/03 11:14:47;;;;;;;;;;;;;;;8.29;19.28;101791.59;5025013;28;19921;-79
2021/11/03 11:17:14;;;;;;;;;;;;;;;8.39;18.29;101787.75;5009514;28;20028;-78
2021/11/03 11:19:45;;;;;;;;;;;;;;;8.21;19.07;101789.16;5007991;28;20047;-76
2021/11/03 11:22:30;;;;;;;;;;;;;;;7.99;18.78;101780.09;5018948;28;19920;-77
2021/11/03 11:25:17;;;;;;;;;;;;;;;7.62;19.50;101785.63;5022412;28;19928;-78
2021/11/03 11:28:01;;;;;;;;;;;;;;;7.89;19.34;101779.47;5035403;28;20381;-78
2021/11/03 11:30:29;;;;;;;;;;;;;;;8.02;18.75;101783.53;5017024;28;19921;-78
2021/11/03 11:33:03;;;;;;;;;;;;;;;8.27;18.69;101777.44;5001039;28;19921;-77
2021/11/03 11:35:34;;;;;;;;;;;;;;;8.47;18.92;101775.06;5000865;28;19924;-76
2021/11/03 11:37:59;;;;;;;;;;;;;;;8.63;18.44;101777.22;5001244;28;19944;-78
2021/11/03 11:40:42;;;;;;;;;;;;;;;8.62;18.41;101779.00;5033162;28;19925;-79
2021/11/03 11:43:07;;;;;;;;;;;;;;;8.78;18.41;101783.84;5016220;28;20300;-79
2021/11/03 11:45:34;;;;;;;;;;;;;;;8.68;18.79;101783.25;5016176;28;19925;-78
2021/11/03 11:48:02;;;;;;;;;;;;;;;8.74;18.99;101783.06;5016921;28;19921;-79
2021/11/03 11:50:40;;;;;;;;;;;;;;;8.84;18.82;101784.50;4999821;28;19927;-77
2021/11/03 11:53:38;;;;;;;;;;;;;;;8.82;18.29;101781.00;5016384;28;19999;-77
2021/11/03 11:56:10;;;;;;;;;;;;;;;8.69;18.66;101782.34;5005056;28;20378;-78
2021/11/03 11:58:41;;;;;;;;;;;;;;;8.71;19.04;101788.50;5016495;28;19921;-78
2021/11/03 12:01:16;;;;;;;;;;;;;;;8.72;18.89;101787.56;5016143;28;19928;-77
2021/11/03 12:04:05;;;;;;;;;;;;;;;8.42;19.06;101784.97;5016478;28;19971;-79
2021/11/03 12:06:55;;;;;;;;;;;;;;;7.32;19.40;101798.00;4975949;28;20024;-77
2021/11/03 12:09:30;;;;;;;;;;;;;;;6.44;20.05;101794.06;5009067;28;20035;-76
2021/11/03 12:11:59;;;;;;;;;;;;;;;5.81;20.76;101798.06;5032493;28;19920;-77
2021/11/03 12:14:45;;;;;;;;;;;;;;;5.37;21.10;101802.50;5015566;28;19921;-76
2021/11/03 12:17:18;;;;;;;;;;;;;;;5.00;21.52;101802.28;5016588;28;20374;-77
2021/11/03 12:19:46;;;;;;;;;;;;;;;4.55;22.13;101808.38;5031951;28;19921;-78
2021/11/03 12:22:17;;;;;;;;;;;;;;;4.25;22.49;101824.69;5031382;28;19921;-77
2021/11/03 12:24:45;;;;;;;;;;;;;;;3.92;22.70;101823.41;5047841;28;19999;-78
2021/11/03 12:27:16;;;;;;;;;;;;;;;3.72;23.00;101823.63;5035121;28;19993;-77
2021/11/03 12:29:45;;;;;;;;;;;;;;;3.48;23.40;101825.66;5021287;28;19974;-77
2021/11/03 12:32:31;;;;;;;;;;;;;;;3.30;23.37;101825.84;5009521;28;20011;-76
2021/11/03 12:35:03;;;;;;;;;;;;;;;3.26;25.02;101826.78;5031604;28;20391;-76
2021/11/03 12:37:31;;;;;;;;;;;;;;;3.11;24.02;101822.53;5053453;28;19921;-77
2021/11/03 12:39:58;;;;;;;;;;;;;;;2.94;24.29;101835.91;5043077;28;19974;-77
2021/11/03 12:42:24;;;;;;;;;;;;;;;2.81;24.69;101835.13;5008871;28;19921;-77
2021/11/03 12:44:51;;;;;;;;;;;;;;;2.63;24.55;101830.88;5042429;28;19921;-77